createdAt,value
2022-10-29T00:02:06.225Z,17.80
2022-10-29T00:04:32.946Z,17.80
2022-10-29T00:06:59.504Z,17.70
2022-10-29T00:09:26.151Z,17.70
2022-10-29T00:11:52.789Z,17.70
2022-10-29T00:14:19.391Z,17.60
2022-10-29T00:16:45.985Z,17.60
2022-10-29T00:19:12.668Z,17.50
2022-10-29T00:21:40.410Z,17.50
2022-10-29T00:24:10.057Z,17.50
2022-10-29T00:26:36.708Z,17.40
2022-10-29T00:29:03.330Z,17.40
2022-10-29T00:31:30.970Z,17.40
2022-10-29T00:33:57.748Z,17.40
2022-10-29T00:36:26.998Z,17.50
2022-10-29T00:38:53.675Z,17.50
2022-10-29T00:41:22.877Z,17.50
2022-10-29T00:43:52.192Z,17.50
2022-10-29T00:46:33.827Z,17.60
2022-10-29T00:49:01.346Z,17.50
2022-10-29T00:51:32.191Z,17.60
2022-10-29T00:54:03.626Z,17.50
2022-10-29T00:56:35.179Z,17.50
2022-10-29T00:59:02.444Z,17.50
2022-10-29T01:01:29.137Z,17.60
2022-10-29T01:03:56.830Z,17.50
2022-10-29T01:06:24.493Z,17.50
2022-10-29T01:08:51.116Z,17.50
2022-10-29T01:11:47.079Z,17.50
2022-10-29T01:14:43.953Z,17.50
2022-10-29T01:17:19.621Z,17.50
2022-10-29T01:20:07.926Z,17.50
2022-10-29T01:22:46.449Z,17.40
2022-10-29T01:25:18.876Z,17.40
2022-10-29T01:27:51.465Z,17.40
2022-10-29T01:30:35.803Z,17.40
2022-10-29T01:33:14.370Z,17.40
2022-10-29T01:35:43.704Z,17.40
2022-10-29T01:38:25.160Z,17.30
2022-10-29T01:41:03.543Z,17.30
2022-10-29T01:43:37.835Z,17.30
2022-10-29T01:46:16.417Z,17.40
2022-10-29T01:48:47.707Z,17.30
2022-10-29T01:51:22.055Z,17.30
2022-10-29T01:53:49.312Z,17.30
2022-10-29T01:56:16.014Z,17.30
2022-10-29T01:58:47.045Z,17.30
2022-10-29T02:01:33.329Z,17.30
2022-10-29T02:04:23.164Z,17.30
2022-10-29T02:07:20.050Z,17.30
2022-10-29T02:10:17.865Z,17.30
2022-10-29T02:12:50.962Z,17.30
2022-10-29T02:15:48.162Z,17.30
2022-10-29T02:18:16.247Z,17.30
2022-10-29T02:20:44.666Z,17.20
2022-10-29T02:23:11.651Z,17.30
2022-10-29T02:25:38.412Z,17.30
2022-10-29T02:28:05.157Z,17.20
2022-10-29T02:30:32.039Z,17.20
2022-10-29T02:32:58.995Z,17.20
2022-10-29T02:35:25.839Z,17.20
2022-10-29T02:37:53.864Z,17.20
2022-10-29T02:40:20.417Z,17.20
2022-10-29T02:42:47.038Z,17.20
2022-10-29T02:45:13.686Z,17.20
2022-10-29T02:47:40.254Z,17.20
2022-10-29T02:50:07.524Z,17.20
2022-10-29T02:52:34.085Z,17.10
2022-10-29T02:55:00.707Z,17.10
2022-10-29T02:57:27.278Z,17.10
2022-10-29T02:59:53.879Z,17.10
2022-10-29T03:02:20.611Z,17.10
2022-10-29T03:04:47.316Z,17.10
2022-10-29T03:07:13.889Z,17.00
2022-10-29T03:09:40.516Z,17.00
2022-10-29T03:12:07.581Z,17.00
2022-10-29T03:14:34.203Z,17.00
2022-10-29T03:17:01.021Z,17.00
2022-10-29T03:19:27.836Z,17.00
2022-10-29T03:21:54.663Z,17.00
2022-10-29T03:24:21.242Z,17.00
2022-10-29T03:26:47.827Z,17.00
2022-10-29T03:29:14.458Z,17.00
2022-10-29T03:31:41.033Z,17.00
2022-10-29T03:34:07.614Z,17.00
2022-10-29T03:36:34.220Z,16.90
2022-10-29T03:39:00.797Z,16.90
2022-10-29T03:41:27.381Z,16.90
2022-10-29T03:46:25.672Z,16.90
2022-10-29T03:48:52.249Z,16.90
2022-10-29T03:51:18.863Z,16.90
2022-10-29T03:53:45.541Z,16.90
2022-10-29T03:56:12.147Z,16.90
2022-10-29T03:58:38.805Z,16.80
2022-10-29T04:01:07.698Z,16.80
2022-10-29T04:03:35.656Z,16.80
2022-10-29T04:06:08.942Z,16.80
2022-10-29T04:08:35.517Z,16.70
2022-10-29T04:11:02.144Z,16.70
2022-10-29T04:13:28.684Z,16.70
2022-10-29T04:15:56.311Z,16.70
2022-10-29T04:18:24.402Z,16.60
2022-10-29T04:29:11.178Z,16.60
2022-10-29T04:31:38.082Z,16.60
2022-10-29T04:34:04.927Z,16.70
2022-10-29T04:36:31.547Z,16.70
2022-10-29T04:38:58.174Z,16.60
2022-10-29T04:41:24.805Z,16.70
2022-10-29T04:43:51.423Z,16.60
2022-10-29T04:46:18.008Z,16.60
2022-10-29T04:48:44.593Z,16.60
2022-10-29T04:51:22.463Z,16.60
2022-10-29T04:53:49.403Z,16.60
2022-10-29T04:56:16.169Z,16.60
2022-10-29T04:58:43.095Z,16.60
2022-10-29T05:01:09.821Z,16.60
2022-10-29T05:03:36.547Z,16.60
2022-10-29T05:06:04.560Z,16.60
2022-10-29T05:08:31.485Z,16.60
2022-10-29T05:11:01.167Z,16.60
2022-10-29T05:13:27.732Z,16.60
2022-10-29T05:15:54.310Z,16.60
2022-10-29T05:18:21.329Z,16.60
2022-10-29T05:20:47.990Z,16.60
2022-10-29T05:23:15.091Z,16.50
2022-10-29T05:25:42.067Z,16.50
2022-10-29T05:28:21.002Z,16.50
2022-10-29T05:30:49.410Z,16.50
2022-10-29T05:33:19.462Z,16.50
2022-10-29T05:35:46.076Z,16.50
2022-10-29T05:38:14.015Z,16.50
2022-10-29T05:40:42.720Z,16.50
2022-10-29T05:43:09.459Z,16.40
2022-10-29T05:45:36.067Z,16.40
2022-10-29T05:48:04.288Z,16.40
2022-10-29T05:50:31.861Z,16.40
2022-10-29T05:53:00.654Z,16.40
2022-10-29T05:55:28.230Z,16.40
2022-10-29T05:58:02.265Z,16.40
2022-10-29T06:00:30.716Z,16.40
2022-10-29T06:02:57.971Z,16.40
2022-10-29T06:05:25.342Z,16.40
2022-10-29T06:07:56.324Z,16.40
2022-10-29T06:10:24.246Z,16.40
2022-10-29T06:12:51.163Z,16.40
2022-10-29T06:15:18.489Z,16.40
2022-10-29T06:17:46.252Z,16.40
2022-10-29T06:20:14.655Z,16.40
2022-10-29T06:22:41.395Z,16.40
2022-10-29T06:25:08.367Z,16.40
2022-10-29T06:27:35.070Z,16.30
2022-10-29T06:30:01.774Z,16.30
2022-10-29T06:32:28.375Z,16.30
2022-10-29T06:34:54.968Z,16.30
2022-10-29T06:37:21.753Z,16.30
2022-10-29T06:39:48.328Z,16.20
2022-10-29T06:42:14.943Z,16.30
2022-10-29T06:44:41.504Z,16.30
2022-10-29T06:47:08.089Z,16.30
2022-10-29T06:49:34.699Z,16.30
2022-10-29T06:52:01.298Z,16.30
2022-10-29T06:54:27.899Z,16.30
2022-10-29T06:56:54.573Z,16.30
2022-10-29T06:59:23.373Z,16.30
2022-10-29T07:01:50.054Z,16.30
2022-10-29T07:04:18.341Z,16.30
2022-10-29T07:06:45.053Z,16.30
2022-10-29T07:09:11.663Z,16.30
2022-10-29T07:11:38.299Z,16.20
2022-10-29T07:14:06.018Z,16.20
2022-10-29T07:16:32.667Z,16.20
2022-10-29T07:18:59.287Z,16.20
2022-10-29T07:21:25.870Z,16.20
2022-10-29T07:23:52.467Z,16.20
2022-10-29T07:26:19.174Z,16.20
2022-10-29T07:28:45.759Z,16.20
2022-10-29T07:31:12.458Z,16.20
2022-10-29T07:33:40.158Z,16.20
2022-10-29T07:36:07.057Z,16.20
2022-10-29T07:38:33.692Z,16.30
2022-10-29T07:41:00.292Z,16.20
2022-10-29T07:43:26.879Z,16.20
2022-10-29T07:45:53.556Z,16.30
2022-10-29T07:48:21.210Z,16.30
2022-10-29T07:50:48.500Z,16.30
2022-10-29T07:53:15.385Z,16.30
2022-10-29T07:55:41.991Z,16.30
2022-10-29T07:58:11.784Z,16.30
2022-10-29T08:00:40.356Z,16.40
2022-10-29T08:03:07.494Z,16.30
2022-10-29T08:05:34.495Z,16.40
2022-10-29T08:08:01.240Z,16.40
2022-10-29T08:10:29.504Z,16.50
2022-10-29T08:12:59.251Z,16.50
2022-10-29T08:15:30.057Z,16.50
2022-10-29T08:17:57.172Z,16.50
2022-10-29T08:20:25.910Z,16.60
2022-10-29T08:22:52.523Z,16.60
2022-10-29T08:25:19.562Z,16.70
2022-10-29T08:27:46.220Z,16.70
2022-10-29T08:30:14.443Z,16.80
2022-10-29T08:32:47.320Z,16.80
2022-10-29T08:35:14.640Z,16.80
2022-10-29T08:37:45.144Z,16.80
2022-10-29T08:40:39.226Z,16.90
2022-10-29T08:43:47.444Z,16.90
2022-10-29T08:46:24.578Z,16.90
2022-10-29T08:48:58.238Z,16.90
2022-10-29T08:51:50.761Z,17.00
2022-10-29T08:54:30.689Z,17.00
2022-10-29T08:57:02.033Z,17.00
2022-10-29T08:59:35.767Z,17.00
2022-10-29T09:02:02.520Z,17.10
2022-10-29T09:04:35.315Z,17.10
2022-10-29T09:07:21.962Z,17.10
2022-10-29T09:10:07.041Z,17.10
2022-10-29T09:12:44.932Z,17.20
2022-10-29T09:15:17.170Z,17.20
2022-10-29T09:18:23.040Z,17.20
2022-10-29T09:21:01.330Z,17.20
2022-10-29T09:23:40.644Z,17.30
2022-10-29T09:26:21.482Z,17.30
2022-10-29T09:29:03.348Z,17.40
2022-10-29T09:31:40.295Z,17.40
2022-10-29T09:34:17.949Z,17.50
2022-10-29T09:36:48.347Z,17.60
2022-10-29T09:39:31.584Z,17.60
2022-10-29T09:42:02.876Z,17.70
2022-10-29T09:44:38.315Z,17.80
2022-10-29T09:47:24.318Z,17.80
2022-10-29T09:50:14.192Z,17.90
2022-10-29T09:52:43.442Z,18.00
2022-10-29T09:55:31.910Z,18.00
2022-10-29T09:57:58.832Z,18.00
2022-10-29T10:00:29.023Z,18.10
2022-10-29T10:03:05.529Z,18.10
2022-10-29T10:05:34.595Z,18.20
2022-10-29T10:08:06.718Z,18.30
2022-10-29T10:10:57.538Z,18.30
2022-10-29T10:13:32.742Z,18.30
2022-10-29T10:16:01.355Z,18.40
2022-10-29T10:18:40.811Z,18.40
2022-10-29T10:21:13.270Z,18.50
2022-10-29T10:23:47.257Z,18.60
2022-10-29T10:26:43.289Z,18.60
2022-10-29T10:29:17.191Z,18.70
2022-10-29T10:32:09.948Z,18.70
2022-10-29T10:34:38.741Z,18.70
2022-10-29T10:37:05.349Z,18.80
2022-10-29T10:39:32.142Z,18.80
2022-10-29T10:42:03.499Z,18.80
2022-10-29T10:44:30.644Z,18.90
2022-10-29T10:47:04.458Z,19.00
2022-10-29T10:49:36.439Z,19.10
2022-10-29T10:52:17.207Z,19.30
2022-10-29T10:55:16.413Z,19.40
2022-10-29T10:58:07.153Z,19.50
2022-10-29T11:00:49.446Z,19.60
2022-10-29T11:03:21.500Z,19.60
2022-10-29T11:06:01.021Z,19.70
2022-10-29T11:08:44.896Z,19.70
2022-10-29T11:11:27.345Z,19.70
2022-10-29T11:13:58.699Z,19.80
2022-10-29T11:16:48.613Z,19.90
2022-10-29T11:19:38.386Z,19.90
2022-10-29T11:22:16.201Z,20.00
2022-10-29T11:24:45.810Z,20.00
2022-10-29T11:27:29.405Z,19.90
2022-10-29T11:30:14.399Z,19.90
2022-10-29T11:32:50.429Z,19.90
2022-10-29T11:35:24.001Z,20.00
2022-10-29T11:38:13.207Z,20.20
2022-10-29T11:40:48.482Z,20.30
2022-10-29T11:43:19.475Z,20.30
2022-10-29T11:46:17.267Z,20.20
2022-10-29T11:48:56.376Z,20.30
2022-10-29T11:51:44.343Z,20.20
2022-10-29T11:54:23.189Z,20.10
2022-10-29T11:56:57.953Z,20.10
2022-10-29T11:59:45.536Z,20.10
2022-10-29T12:02:30.863Z,20.10
2022-10-29T12:05:04.628Z,20.20
2022-10-29T12:07:43.830Z,20.30
2022-10-29T12:10:25.609Z,20.30
2022-10-29T12:13:11.670Z,20.30
2022-10-29T12:16:15.726Z,20.40
2022-10-29T12:19:01.470Z,20.40
2022-10-29T12:21:53.368Z,20.40
2022-10-29T12:24:29.141Z,20.40
2022-10-29T12:27:27.947Z,20.40
2022-10-29T12:30:00.413Z,20.50
2022-10-29T12:32:50.963Z,20.50
2022-10-29T12:35:25.617Z,20.50
2022-10-29T12:38:23.406Z,20.60
2022-10-29T12:40:56.920Z,20.50
2022-10-29T12:43:29.737Z,20.60
2022-10-29T12:49:19.686Z,20.50
2022-10-29T12:51:54.369Z,20.60
2022-10-29T12:54:41.211Z,20.60
2022-10-29T12:57:13.575Z,20.60
2022-10-29T12:59:41.923Z,20.60
2022-10-29T13:02:18.862Z,20.60
2022-10-29T13:05:09.445Z,20.60
2022-10-29T13:07:37.886Z,20.60
2022-10-29T13:10:23.279Z,20.70
2022-10-29T13:12:56.850Z,20.70
2022-10-29T13:15:30.436Z,20.70
2022-10-29T13:18:01.227Z,20.70
2022-10-29T13:20:36.824Z,20.80
2022-10-29T13:23:10.866Z,20.80
2022-10-29T13:25:37.460Z,20.90
2022-10-29T13:28:10.084Z,21.00
2022-10-29T13:30:39.041Z,21.10
2022-10-29T13:33:23.438Z,21.00
2022-10-29T13:36:01.407Z,21.00
2022-10-29T13:39:04.964Z,21.00
2022-10-29T13:41:50.079Z,21.10
2022-10-29T13:44:21.538Z,21.10
2022-10-29T13:47:20.063Z,21.20
2022-10-29T13:49:48.611Z,21.30
2022-10-29T13:52:21.354Z,21.40
2022-10-29T13:55:00.247Z,21.50
2022-10-29T13:57:51.705Z,21.50
2022-10-29T14:00:20.721Z,21.50
2022-10-29T14:03:04.328Z,21.50
2022-10-29T14:05:41.417Z,21.40
2022-10-29T14:08:13.960Z,21.50
2022-10-29T14:10:40.681Z,21.50
2022-10-29T14:13:23.560Z,21.60
2022-10-29T14:16:09.691Z,21.50
2022-10-29T14:18:37.519Z,21.60
2022-10-29T14:21:07.092Z,21.50
2022-10-29T14:23:33.994Z,21.60
2022-10-29T14:26:03.798Z,21.60
2022-10-29T14:28:32.087Z,21.50
2022-10-29T14:31:06.325Z,21.50
2022-10-29T14:33:38.489Z,21.40
2022-10-29T14:36:14.944Z,21.40
2022-10-29T14:38:45.375Z,21.40
2022-10-29T14:41:12.448Z,21.40
2022-10-29T14:43:40.009Z,21.30
2022-10-29T14:46:27.335Z,21.30
2022-10-29T14:49:16.669Z,21.30
2022-10-29T14:51:58.062Z,21.30
2022-10-29T14:54:48.145Z,21.20
2022-10-29T14:57:17.881Z,21.30
2022-10-29T14:59:49.417Z,21.20
2022-10-29T15:02:37.130Z,21.20
2022-10-29T15:05:21.719Z,21.20
2022-10-29T15:07:48.882Z,21.10
2022-10-29T15:10:26.380Z,21.10
2022-10-29T15:12:53.381Z,21.10
2022-10-29T15:15:25.636Z,21.10
2022-10-29T15:18:15.718Z,21.20
2022-10-29T15:20:42.423Z,21.20
2022-10-29T15:23:36.718Z,21.20
2022-10-29T15:26:15.644Z,21.10
2022-10-29T15:28:45.015Z,21.00
2022-10-29T15:31:19.673Z,20.90
2022-10-29T15:33:46.802Z,20.80
2022-10-29T15:36:13.540Z,20.80
2022-10-29T15:38:52.365Z,20.80
2022-10-29T15:41:19.233Z,20.80
2022-10-29T15:43:56.824Z,20.70
2022-10-29T15:46:30.546Z,20.70
2022-10-29T15:48:57.292Z,20.60
2022-10-29T15:51:28.886Z,20.60
2022-10-29T15:53:57.190Z,20.50
2022-10-29T15:56:24.628Z,20.50
2022-10-29T15:58:52.416Z,20.40
2022-10-29T16:01:19.095Z,20.40
2022-10-29T16:03:45.892Z,20.30
2022-10-29T16:06:32.910Z,20.30
2022-10-29T16:09:00.237Z,20.30
2022-10-29T16:11:27.556Z,20.20
2022-10-29T16:13:55.580Z,20.20
2022-10-29T16:16:24.314Z,20.20
2022-10-29T16:18:52.586Z,20.20
2022-10-29T16:21:22.462Z,20.20
2022-10-29T16:23:49.396Z,20.20
2022-10-29T16:26:18.620Z,20.10
2022-10-29T16:28:49.302Z,20.10
2022-10-29T16:31:27.334Z,20.10
2022-10-29T16:33:57.179Z,20.10
2022-10-29T16:36:34.980Z,20.10
2022-10-29T16:39:01.610Z,20.00
2022-10-29T16:41:28.321Z,20.00
2022-10-29T16:43:54.934Z,20.00
2022-10-29T16:46:21.664Z,20.00
2022-10-29T16:48:48.305Z,20.00
2022-10-29T16:51:14.923Z,20.00
2022-10-29T16:53:41.516Z,19.90
2022-10-29T16:56:09.544Z,19.90
2022-10-29T16:58:36.216Z,19.90
2022-10-29T17:01:08.064Z,19.80
2022-10-29T17:03:35.283Z,19.80
2022-10-29T17:06:04.349Z,19.80
2022-10-29T17:08:34.741Z,19.80
2022-10-29T17:11:04.013Z,19.70
2022-10-29T17:13:30.653Z,19.70
2022-10-29T17:15:57.596Z,19.70
2022-10-29T17:18:24.692Z,19.70
2022-10-29T17:20:58.940Z,19.70
2022-10-29T17:23:26.094Z,19.70
2022-10-29T17:25:57.270Z,19.70
2022-10-29T17:28:25.288Z,19.70
2022-10-29T17:30:52.219Z,19.60
2022-10-29T17:33:19.150Z,19.60
2022-10-29T17:35:45.858Z,19.60
2022-10-29T17:38:12.789Z,19.60
2022-10-29T17:40:39.597Z,19.60
2022-10-29T17:43:06.370Z,19.50
2022-10-29T17:45:33.068Z,19.50
2022-10-29T17:48:00.255Z,19.50
2022-10-29T17:50:27.475Z,19.50
2022-10-29T17:52:57.199Z,19.50
2022-10-29T17:55:23.825Z,19.50
2022-10-29T17:57:50.417Z,19.50
2022-10-29T18:00:17.302Z,19.40
2022-10-29T18:02:44.014Z,19.50
2022-10-29T18:05:10.707Z,19.50
2022-10-29T18:07:37.372Z,19.50
2022-10-29T18:10:04.235Z,19.50
2022-10-29T18:12:30.874Z,19.40
2022-10-29T18:14:57.492Z,19.40
2022-10-29T18:17:24.158Z,19.40
2022-10-29T18:19:50.827Z,19.40
2022-10-29T18:22:17.470Z,19.40
2022-10-29T18:24:44.118Z,19.30
2022-10-29T18:27:10.793Z,19.30
2022-10-29T18:29:37.398Z,19.20
2022-10-29T18:32:04.269Z,19.20
2022-10-29T18:34:31.634Z,19.20
2022-10-29T18:36:58.286Z,19.20
2022-10-29T18:39:24.931Z,19.10
2022-10-29T18:41:51.590Z,19.10
2022-10-29T18:44:18.249Z,19.20
2022-10-29T18:46:44.873Z,19.10
2022-10-29T18:49:12.961Z,19.20
2022-10-29T18:51:40.212Z,19.20
2022-10-29T18:54:06.894Z,19.10
2022-10-29T18:56:33.499Z,19.10
2022-10-29T18:59:00.297Z,19.10
2022-10-29T19:01:32.345Z,19.10
2022-10-29T19:04:01.353Z,19.20
2022-10-29T19:06:30.416Z,19.10
2022-10-29T19:08:59.209Z,19.20
2022-10-29T19:11:27.015Z,19.10
2022-10-29T19:13:58.571Z,19.10
2022-10-29T19:16:26.528Z,19.20
2022-10-29T19:18:57.900Z,19.10
2022-10-29T19:21:25.474Z,19.10
2022-10-29T19:23:56.513Z,19.10
2022-10-29T19:26:24.223Z,19.10
2022-10-29T19:28:51.038Z,19.10
2022-10-29T19:31:20.353Z,19.10
2022-10-29T19:33:48.735Z,19.10
2022-10-29T19:36:15.735Z,19.00
2022-10-29T19:38:42.725Z,19.10
2022-10-29T19:41:09.367Z,19.00
2022-10-29T19:43:36.000Z,19.00
2022-10-29T19:46:12.258Z,19.00
2022-10-29T19:48:39.849Z,19.00
2022-10-29T19:51:07.746Z,19.00
2022-10-29T19:53:34.438Z,19.00
2022-10-29T19:56:01.015Z,19.00
2022-10-29T19:58:28.569Z,19.00
2022-10-29T20:01:02.968Z,19.00
2022-10-29T20:03:30.025Z,19.00
2022-10-29T20:05:56.931Z,18.90
2022-10-29T20:08:24.056Z,18.90
2022-10-29T20:10:58.180Z,18.90
2022-10-29T20:13:25.744Z,18.90
2022-10-29T20:15:53.908Z,18.90
2022-10-29T20:18:20.969Z,18.90
2022-10-29T20:20:56.293Z,18.90
2022-10-29T20:23:23.950Z,18.90
2022-10-29T20:25:50.655Z,18.80
2022-10-29T20:28:17.425Z,18.80
2022-10-29T20:30:44.018Z,18.80
2022-10-29T20:33:10.684Z,18.70
2022-10-29T20:35:37.329Z,18.70
2022-10-29T20:38:04.117Z,18.60
2022-10-29T20:40:30.724Z,18.60
2022-10-29T20:42:57.457Z,18.60
2022-10-29T20:45:24.135Z,18.50
2022-10-29T20:47:50.779Z,18.50
2022-10-29T20:50:17.495Z,18.40
2022-10-29T20:52:48.342Z,18.50
2022-10-29T20:55:15.672Z,18.50
2022-10-29T20:57:42.301Z,18.50
2022-10-29T21:00:10.066Z,18.50
2022-10-29T21:02:36.871Z,18.50
2022-10-29T21:05:03.805Z,18.50
2022-10-29T21:07:30.434Z,18.50
2022-10-29T21:09:57.102Z,18.50
2022-10-29T21:12:23.786Z,18.50
2022-10-29T21:14:50.390Z,18.50
2022-10-29T21:17:17.074Z,18.50
2022-10-29T21:19:43.665Z,18.50
2022-10-29T21:22:10.305Z,18.50
2022-10-29T21:24:38.326Z,18.50
2022-10-29T21:27:06.997Z,18.50
2022-10-29T21:29:33.653Z,18.50
2022-10-29T21:32:00.230Z,18.50
2022-10-29T21:34:26.925Z,18.50
2022-10-29T21:36:53.911Z,18.50
2022-10-29T21:39:20.560Z,18.50
2022-10-29T21:41:47.217Z,18.50
2022-10-29T21:44:13.841Z,18.50
2022-10-29T21:46:40.908Z,18.50
2022-10-29T21:49:07.567Z,18.50
2022-10-29T21:51:34.222Z,18.50
2022-10-29T21:54:00.854Z,18.50
2022-10-29T21:56:27.524Z,18.50
2022-10-29T21:58:54.151Z,18.40
2022-10-29T22:01:21.023Z,18.50
2022-10-29T22:03:47.855Z,18.40
2022-10-29T22:06:17.841Z,18.40
2022-10-29T22:08:45.301Z,18.40
2022-10-29T22:11:12.657Z,18.40
2022-10-29T22:13:39.306Z,18.40
2022-10-29T22:16:07.722Z,18.40
2022-10-29T22:18:35.624Z,18.40
2022-10-29T22:21:23.506Z,18.40
2022-10-29T22:23:55.763Z,18.40
2022-10-29T22:26:25.815Z,18.30
2022-10-29T22:28:52.604Z,18.30
2022-10-29T22:31:20.743Z,18.30
2022-10-29T22:33:48.169Z,18.30
2022-10-29T22:36:20.326Z,18.30
2022-10-29T22:38:47.238Z,18.30
2022-10-29T22:41:16.795Z,18.30
2022-10-29T22:43:44.401Z,18.30
2022-10-29T22:46:13.198Z,18.30
2022-10-29T22:48:40.229Z,18.30
2022-10-29T22:51:11.901Z,18.30
2022-10-29T22:53:38.495Z,18.30
2022-10-29T22:56:05.857Z,18.30
2022-10-29T22:58:32.609Z,18.30
2022-10-29T23:01:20.575Z,18.30
2022-10-29T23:03:47.844Z,18.30
2022-10-29T23:06:17.130Z,18.30
2022-10-29T23:08:44.565Z,18.30
2022-10-29T23:11:19.324Z,18.20
2022-10-29T23:13:47.540Z,18.20
2022-10-29T23:16:14.142Z,18.20
2022-10-29T23:18:40.906Z,18.20
2022-10-29T23:21:11.293Z,18.20
2022-10-29T23:24:00.096Z,18.20
2022-10-29T23:26:27.128Z,18.20
2022-10-29T23:28:53.876Z,18.20
2022-10-29T23:31:25.946Z,18.20
2022-10-29T23:33:54.453Z,18.20
2022-10-29T23:36:23.268Z,18.10
2022-10-29T23:38:57.468Z,18.20
2022-10-29T23:41:30.128Z,18.10
2022-10-29T23:43:57.410Z,18.10
2022-10-29T23:46:24.087Z,18.20
2022-10-29T23:48:50.807Z,18.10
2022-10-29T23:51:17.906Z,18.10
2022-10-29T23:53:44.501Z,18.10
2022-10-29T23:56:11.082Z,18.10
2022-10-29T23:58:37.671Z,18.10
